Time;durP1;ratioP1;P1;durP2;ratioP2;P2;SDS_P1;SDS_P2;PMS_P1;PMS_P2;Temp;Humidity;BMP_temperature;BMP_pressure;BME280_temperature;BME280_humidity;BME280_pressure;Samples;Min_cycle;Max_cycle;Signal;HPM_P1;HPM_P2
2023/10/07 00:03:05;;;;;;;;;;;;;;;8.71;100.00;97354.34;5063958;28;19945;-72
2023/10/07 00:05:35;;;;;;;;;;;;;;;8.69;100.00;97351.09;5064461;28;19978;-73
2023/10/07 00:08:03;;;;;;;;;;;;;;;8.68;100.00;97352.91;5063664;28;19944;-73
2023/10/07 00:10:30;;;;;;;;;;;;;;;8.63;100.00;97350.06;5063664;28;20214;-73
2023/10/07 00:13:04;;;;;;;;;;;;;;;8.61;100.00;97351.19;5063702;28;19944;-73
2023/10/07 00:15:30;;;;;;;;;;;;;;;8.57;100.00;97342.09;5064368;28;20199;-73
2023/10/07 00:17:57;;;;;;;;;;;;;;;8.54;100.00;97338.84;5064099;28;19947;-73
2023/10/07 00:20:24;;;;;;;;;;;;;;;8.52;100.00;97340.03;5064109;28;19943;-74
2023/10/07 00:22:54;;;;;;;;;;;;;;;8.49;100.00;97341.22;5063553;28;20240;-73
2023/10/07 00:25:21;;;;;;;;;;;;;;;8.47;100.00;97337.97;5063381;28;19959;-73
2023/10/07 00:27:48;;;;;;;;;;;;;;;8.48;100.00;97344.84;5063517;28;19934;-73
2023/10/07 00:30:16;;;;;;;;;;;;;;;8.49;100.00;97348.25;5063454;28;19927;-73
2023/10/07 00:32:45;;;;;;;;;;;;;;;8.49;100.00;97346.44;5063009;28;19939;-74
2023/10/07 00:35:11;;;;;;;;;;;;;;;8.49;100.00;97333.38;5063313;28;19945;-73
2023/10/07 00:37:46;;;;;;;;;;;;;;;8.49;100.00;97343.03;5063634;28;19938;-73
2023/10/07 00:40:30;;;;;;;;;;;;;;;8.47;100.00;97332.75;5063959;28;19929;-73
2023/10/07 00:42:57;;;;;;;;;;;;;;;8.45;100.00;97339.16;5064158;28;19958;-72
2023/10/07 00:45:25;;;;;;;;;;;;;;;8.42;100.00;97335.13;5063249;28;19945;-73
2023/10/07 00:47:52;;;;;;;;;;;;;;;8.41;100.00;97335.28;5063101;28;19971;-72
2023/10/07 00:50:25;;;;;;;;;;;;;;;8.38;100.00;97343.44;5063308;28;20130;-73
2023/10/07 00:52:56;;;;;;;;;;;;;;;8.37;100.00;97334.00;5066875;28;19933;-73
2023/10/07 00:55:41;;;;;;;;;;;;;;;8.34;100.00;97335.19;5066903;28;19938;-74
2023/10/07 00:58:13;;;;;;;;;;;;;;;8.30;100.00;97333.91;5067689;28;19941;-73
2023/10/07 01:08:29;;;;;;;;;;;;;;;8.20;100.00;97318.50;5067197;28;19961;-73
2023/10/07 01:11:07;;;;;;;;;;;;;;;8.20;100.00;97320.31;5066673;28;19934;-73
2023/10/07 01:13:35;;;;;;;;;;;;;;;8.16;100.00;97308.59;5066886;28;19930;-72
2023/10/07 01:16:06;;;;;;;;;;;;;;;8.13;100.00;97312.38;5066552;28;20127;-72
2023/10/07 01:18:39;;;;;;;;;;;;;;;8.11;100.00;97311.75;5067049;28;20227;-72
2023/10/07 01:21:13;;;;;;;;;;;;;;;8.09;100.00;97321.56;5066069;28;19937;-73
2023/10/07 01:23:40;;;;;;;;;;;;;;;8.07;100.00;97316.53;5067208;28;19935;-73
2023/10/07 01:26:15;;;;;;;;;;;;;;;8.04;100.00;97314.28;5067089;28;20241;-73
2023/10/07 01:28:41;;;;;;;;;;;;;;;8.04;100.00;97310.84;5066386;28;19942;-73
2023/10/07 01:31:07;;;;;;;;;;;;;;;8.00;100.00;97310.41;5066197;28;19934;-74
2023/10/07 01:33:41;;;;;;;;;;;;;;;7.99;100.00;97306.16;5066233;28;19937;-73
2023/10/07 01:38:33;;;;;;;;;;;;;;;7.93;100.00;97299.03;5066143;28;19943;-73
2023/10/07 01:41:14;;;;;;;;;;;;;;;7.90;100.00;97300.22;5066932;28;20108;-72
2023/10/07 01:43:41;;;;;;;;;;;;;;;7.86;100.00;97296.34;5066063;28;19929;-73
2023/10/07 01:46:12;;;;;;;;;;;;;;;7.87;100.00;97302.38;5064861;28;19958;-73
2023/10/07 01:48:38;;;;;;;;;;;;;;;7.85;100.00;97302.56;5065850;28;20020;-73
2023/10/07 01:51:05;;;;;;;;;;;;;;;7.83;100.00;97299.31;5065891;28;20200;-74
2023/10/07 01:53:32;;;;;;;;;;;;;;;7.82;100.00;97299.50;5065811;28;20097;-73
2023/10/07 01:55:58;;;;;;;;;;;;;;;7.80;100.00;97293.63;5065835;28;19936;-73
2023/10/07 01:58:25;;;;;;;;;;;;;;;7.80;100.00;97291.84;5065806;28;19952;-74
2023/10/07 02:00:57;;;;;;;;;;;;;;;7.80;100.00;97294.44;5066500;28;19937;-73
2023/10/07 02:03:24;;;;;;;;;;;;;;;7.80;100.00;97297.06;5065464;28;19932;-74
2023/10/07 02:05:50;;;;;;;;;;;;;;;7.81;100.00;97285.63;5065541;28;19972;-72
2023/10/07 02:08:25;;;;;;;;;;;;;;;7.81;100.00;97290.03;5065526;28;19969;-72
2023/10/07 02:10:52;;;;;;;;;;;;;;;7.82;100.00;97289.84;5065537;28;20211;-73
2023/10/07 02:13:19;;;;;;;;;;;;;;;7.82;100.00;97282.03;5065475;28;20119;-73
2023/10/07 02:15:57;;;;;;;;;;;;;;;7.83;100.00;97293.28;5065464;28;19935;-73
2023/10/07 02:18:26;;;;;;;;;;;;;;;7.83;100.00;97298.50;5065962;28;19941;-74
2023/10/07 02:20:53;;;;;;;;;;;;;;;7.84;100.00;97300.13;5066143;28;20183;-73
2023/10/07 02:23:40;;;;;;;;;;;;;;;7.84;100.00;97308.78;5065230;28;19936;-72
2023/10/07 02:26:06;;;;;;;;;;;;;;;7.84;100.00;97306.16;5065956;28;20197;-73
2023/10/07 02:28:34;;;;;;;;;;;;;;;7.84;100.00;97300.13;5065152;28;20235;-73
2023/10/07 02:31:07;;;;;;;;;;;;;;;7.83;100.00;97296.72;5065694;28;19940;-72
2023/10/07 02:33:43;;;;;;;;;;;;;;;7.83;100.00;97301.94;5065652;28;19935;-73
2023/10/07 02:36:28;;;;;;;;;;;;;;;7.80;100.00;97297.06;5065226;28;20255;-73
2023/10/07 02:39:00;;;;;;;;;;;;;;;7.77;100.00;97294.81;5064961;28;19937;-72
2023/10/07 02:41:26;;;;;;;;;;;;;;;7.73;100.00;97306.59;5065461;28;19938;-73
2023/10/07 02:43:52;;;;;;;;;;;;;;;7.68;100.00;97304.50;5065664;28;19994;-73
2023/10/07 02:46:31;;;;;;;;;;;;;;;7.65;100.00;97299.66;5065254;28;19954;-73
2023/10/07 02:49:02;;;;;;;;;;;;;;;7.63;100.00;97296.41;5064853;28;20344;-73
2023/10/07 02:51:27;;;;;;;;;;;;;;;7.62;100.00;97291.34;5064469;28;20120;-73
2023/10/07 02:54:00;;;;;;;;;;;;;;;7.60;100.00;97299.38;5064660;28;19936;-72
2023/10/07 02:56:29;;;;;;;;;;;;;;;7.59;100.00;97307.38;5064697;28;19945;-73
2023/10/07 02:59:03;;;;;;;;;;;;;;;7.56;100.00;97313.78;5064597;28;19936;-73
2023/10/07 03:01:29;;;;;;;;;;;;;;;7.53;100.00;97314.13;5065420;28;19956;-73
2023/10/07 03:03:55;;;;;;;;;;;;;;;7.51;100.00;97322.13;5064691;28;20180;-72
2023/10/07 03:06:26;;;;;;;;;;;;;;;7.48;100.00;97306.81;5064406;28;19956;-72
2023/10/07 03:09:00;;;;;;;;;;;;;;;7.46;100.00;97308.81;5064989;28;20239;-72
2023/10/07 03:11:40;;;;;;;;;;;;;;;7.45;100.00;97315.00;5064740;28;19941;-73
2023/10/07 03:14:06;;;;;;;;;;;;;;;7.44;100.00;97316.00;5063819;28;20129;-73
2023/10/07 03:16:47;;;;;;;;;;;;;;;7.44;100.00;97328.25;5063920;28;19937;-72
2023/10/07 03:19:23;;;;;;;;;;;;;;;7.41;100.00;97331.19;5064540;28;19945;-73
2023/10/07 03:21:55;;;;;;;;;;;;;;;7.38;100.00;97323.72;5064538;28;19932;-72
2023/10/07 03:24:30;;;;;;;;;;;;;;;7.35;100.00;97321.44;5064649;28;19931;-73
2023/10/07 03:27:05;;;;;;;;;;;;;;;7.31;100.00;97331.44;5064171;28;20142;-72
2023/10/07 03:29:37;;;;;;;;;;;;;;;7.27;100.00;97330.97;5064153;28;19944;-73
2023/10/07 03:32:12;;;;;;;;;;;;;;;7.26;100.00;97328.53;5064941;28;19936;-73
2023/10/07 03:34:45;;;;;;;;;;;;;;;7.26;100.00;97325.91;5064354;28;19996;-73
2023/10/07 03:37:14;;;;;;;;;;;;;;;7.24;100.00;97320.06;5064759;28;19942;-73
2023/10/07 03:39:57;;;;;;;;;;;;;;;7.22;100.00;97322.84;5062924;28;20220;-73
2023/10/07 03:42:23;;;;;;;;;;;;;;;7.20;100.00;97327.44;5064286;28;19929;-73
2023/10/07 03:44:49;;;;;;;;;;;;;;;7.16;100.00;97325.34;5063347;28;19941;-73
2023/10/07 03:47:15;;;;;;;;;;;;;;;7.13;100.00;97321.28;5063700;28;20150;-73
2023/10/07 03:49:42;;;;;;;;;;;;;;;7.11;100.00;97312.81;5063936;28;19939;-73
2023/10/07 03:52:12;;;;;;;;;;;;;;;7.06;100.00;97317.78;5063867;28;19938;-73
2023/10/07 03:54:42;;;;;;;;;;;;;;;7.06;100.00;97325.59;5064129;28;20151;-73
2023/10/07 03:57:08;;;;;;;;;;;;;;;7.05;100.00;97339.59;5064621;28;19933;-73
2023/10/07 03:59:34;;;;;;;;;;;;;;;7.03;100.00;97341.56;5064632;28;19936;-73
2023/10/07 04:02:00;;;;;;;;;;;;;;;7.03;100.00;97338.97;5064286;28;19933;-72
2023/10/07 04:04:28;;;;;;;;;;;;;;;7.03;100.00;97337.16;5063761;28;19993;-73
2023/10/07 04:06:53;;;;;;;;;;;;;;;7.04;100.00;97341.41;5063683;28;20011;-72
2023/10/07 04:09:27;;;;;;;;;;;;;;;7.05;100.00;97348.22;5063927;28;19962;-73
2023/10/07 04:11:53;;;;;;;;;;;;;;;7.04;100.00;97336.19;5063739;28;19946;-73
2023/10/07 04:14:27;;;;;;;;;;;;;;;7.03;100.00;97324.13;5063621;28;20000;-73
2023/10/07 04:16:54;;;;;;;;;;;;;;;7.01;100.00;97331.31;5064202;28;19929;-72
2023/10/07 04:21:51;;;;;;;;;;;;;;;6.93;100.00;97320.13;5063813;28;19951;-72
2023/10/07 04:24:18;;;;;;;;;;;;;;;6.91;100.00;97323.72;5063541;28;19955;-72
2023/10/07 04:26:54;;;;;;;;;;;;;;;6.92;100.00;97332.34;5065547;28;19942;-73
2023/10/07 04:29:21;;;;;;;;;;;;;;;6.92;100.00;97332.34;5068241;28;19932;-73
2023/10/07 04:31:51;;;;;;;;;;;;;;;6.93;100.00;97347.03;5067453;28;19937;-72
2023/10/07 04:34:26;;;;;;;;;;;;;;;6.93;100.00;97344.41;5067253;28;19961;-72
2023/10/07 04:42:22;;;;;;;;;;;;;;;6.94;100.00;97345.22;5067974;28;19937;-73
2023/10/07 04:47:36;;;;;;;;;;;;;;;6.89;100.00;97333.53;5067322;28;20148;-72
2023/10/07 04:50:15;;;;;;;;;;;;;;;6.89;100.00;97320.47;5067906;28;19941;-72
2023/10/07 04:52:42;;;;;;;;;;;;;;;6.89;100.00;97328.31;5067577;28;19929;-73
2023/10/07 04:55:15;;;;;;;;;;;;;;;6.91;100.00;97328.13;5067514;28;19945;-73
2023/10/07 04:57:56;;;;;;;;;;;;;;;6.93;100.00;97327.94;5066037;28;19984;-73
2023/10/07 05:00:36;;;;;;;;;;;;;;;6.95;100.00;97333.81;5066654;28;19933;-73
2023/10/07 05:03:08;;;;;;;;;;;;;;;6.96;100.00;97327.63;5066870;28;19941;-73
2023/10/07 05:05:34;;;;;;;;;;;;;;;6.97;100.00;97326.63;5067259;28;19949;-73
2023/10/07 05:08:08;;;;;;;;;;;;;;;6.95;100.00;97323.38;5066787;28;20235;-72
2023/10/07 05:10:38;;;;;;;;;;;;;;;6.96;100.00;97327.63;5066853;28;19944;-73
2023/10/07 05:13:06;;;;;;;;;;;;;;;6.93;100.00;97328.78;5066620;28;19946;-73
2023/10/07 05:15:33;;;;;;;;;;;;;;;6.94;100.00;97327.78;5066610;28;19935;-73
2023/10/07 05:18:03;;;;;;;;;;;;;;;6.94;100.00;97324.38;5066560;28;19957;-73
2023/10/07 05:20:32;;;;;;;;;;;;;;;6.94;100.00;97316.53;5066525;28;19935;-73
2023/10/07 05:23:00;;;;;;;;;;;;;;;6.93;100.00;97328.78;5066987;28;19967;-73
2023/10/07 05:25:26;;;;;;;;;;;;;;;6.91;100.00;97328.13;5067104;28;19953;-73
2023/10/07 05:27:52;;;;;;;;;;;;;;;6.93;100.00;97335.75;5066360;28;20006;-72
2023/10/07 05:30:18;;;;;;;;;;;;;;;6.90;100.00;97342.94;5066253;28;19995;-72
2023/10/07 05:32:45;;;;;;;;;;;;;;;6.92;100.00;97363.66;5066310;28;19937;-73
2023/10/07 05:35:14;;;;;;;;;;;;;;;6.91;100.00;97351.59;5066154;28;19942;-73
2023/10/07 05:37:42;;;;;;;;;;;;;;;6.92;100.00;97350.59;5063816;28;19946;-73
2023/10/07 05:40:08;;;;;;;;;;;;;;;6.92;100.00;97363.66;5066124;28;20252;-73
2023/10/07 05:42:34;;;;;;;;;;;;;;;6.90;100.00;97360.41;5066584;28;19942;-73
2023/10/07 05:44:59;;;;;;;;;;;;;;;6.88;100.00;97360.56;5065945;28;19929;-72
2023/10/07 05:47:25;;;;;;;;;;;;;;;6.87;100.00;97368.56;5065852;28;19959;-72
2023/10/07 05:49:55;;;;;;;;;;;;;;;6.85;100.00;97367.94;5065933;28;20217;-73
2023/10/07 05:52:21;;;;;;;;;;;;;;;6.85;100.00;97365.31;5066618;28;19940;-73
2023/10/07 05:54:47;;;;;;;;;;;;;;;6.84;100.00;97366.28;5066441;28;19935;-73
2023/10/07 05:57:13;;;;;;;;;;;;;;;6.82;100.00;97370.88;5066556;28;20089;-73
2023/10/07 05:59:42;;;;;;;;;;;;;;;6.83;100.00;97364.69;5066297;28;19943;-72
2023/10/07 06:02:13;;;;;;;;;;;;;;;6.85;100.00;97360.13;5065706;28;19935;-73
2023/10/07 06:04:39;;;;;;;;;;;;;;;6.87;100.00;97371.19;5066441;28;19936;-73
2023/10/07 06:07:07;;;;;;;;;;;;;;;7.03;100.00;97362.44;5065517;28;19955;-73
2023/10/07 06:09:36;;;;;;;;;;;;;;;7.33;100.00;97360.78;5065588;28;19932;-73
2023/10/07 06:12:04;;;;;;;;;;;;;;;7.68;100.00;97363.75;5065468;28;19940;-73
2023/10/07 06:14:31;;;;;;;;;;;;;;;8.03;100.00;97348.41;5065464;28;19935;-73
2023/10/07 06:16:57;;;;;;;;;;;;;;;8.37;100.00;97347.06;5066149;28;19935;-73
2023/10/07 06:19:24;;;;;;;;;;;;;;;8.71;100.00;97344.72;5065361;28;19948;-73
2023/10/07 06:21:56;;;;;;;;;;;;;;;9.05;100.00;97339.81;5065313;28;19939;-72
2023/10/07 06:24:23;;;;;;;;;;;;;;;9.34;100.00;97328.41;5065240;28;20248;-73
2023/10/07 06:26:51;;;;;;;;;;;;;;;9.58;100.00;97305.47;5065946;28;19951;-73
2023/10/07 06:29:20;;;;;;;;;;;;;;;9.78;100.00;97310.84;5064628;28;19944;-73
2023/10/07 06:31:55;;;;;;;;;;;;;;;9.98;100.00;97301.31;5065659;28;19938;-73
2023/10/07 06:34:25;;;;;;;;;;;;;;;10.18;100.00;97297.97;5064947;28;19955;-73
2023/10/07 06:36:52;;;;;;;;;;;;;;;10.32;100.00;97278.72;5065779;28;19939;-73
2023/10/07 06:39:27;;;;;;;;;;;;;;;10.47;100.00;97295.09;5064860;28;19939;-73
2023/10/07 06:41:55;;;;;;;;;;;;;;;10.64;100.00;97311.31;5065099;28;19943;-73
2023/10/07 06:44:23;;;;;;;;;;;;;;;10.81;98.86;97287.34;5064802;28;19940;-73
2023/10/07 06:46:55;;;;;;;;;;;;;;;10.91;96.77;97272.03;5065030;28;19965;-73
2023/10/07 06:49:21;;;;;;;;;;;;;;;10.94;93.39;97255.88;5065101;28;20219;-73
2023/10/07 06:51:56;;;;;;;;;;;;;;;11.00;94.04;97260.31;5064751;28;20107;-73
2023/10/07 06:54:34;;;;;;;;;;;;;;;11.09;94.38;97264.38;5064731;28;19934;-73
2023/10/07 06:57:04;;;;;;;;;;;;;;;11.27;94.97;97273.47;5065142;28;19937;-73
2023/10/07 06:59:30;;;;;;;;;;;;;;;11.46;95.28;97277.91;5064592;28;20124;-74
2023/10/07 07:01:56;;;;;;;;;;;;;;;11.54;92.32;97267.19;5064278;28;19976;-73
2023/10/07 07:04:23;;;;;;;;;;;;;;;11.49;91.16;97264.41;5064554;28;19948;-73
2023/10/07 07:12:11;;;;;;;;;;;;;;;11.13;93.55;97304.19;5064665;28;19929;-73
2023/10/07 07:14:41;;;;;;;;;;;;;;;10.89;93.58;97314.22;5063963;28;19942;-73
2023/10/07 07:20:19;;;;;;;;;;;;;;;10.97;97.24;97344.72;5064848;28;19938;-73
2023/10/07 07:22:47;;;;;;;;;;;;;;;11.03;94.95;97319.50;5064117;28;19939;-73
2023/10/07 07:25:35;;;;;;;;;;;;;;;11.13;95.71;97327.81;5064675;28;19943;-73
2023/10/07 07:28:03;;;;;;;;;;;;;;;11.29;91.17;97305.59;5064588;28;19928;-73
2023/10/07 07:30:34;;;;;;;;;;;;;;;11.45;93.71;97322.78;5064065;28;19934;-73
2023/10/07 07:33:06;;;;;;;;;;;;;;;11.64;94.73;97324.59;5064887;28;20043;-73
2023/10/07 07:35:45;;;;;;;;;;;;;;;11.80;94.37;97328.66;5064518;28;19953;-73
2023/10/07 07:38:17;;;;;;;;;;;;;;;11.79;95.81;97330.44;5064879;28;19930;-73
2023/10/07 07:40:43;;;;;;;;;;;;;;;11.76;96.56;97333.50;5064514;28;19943;-73
2023/10/07 07:43:13;;;;;;;;;;;;;;;11.86;94.29;97314.66;5063936;28;19933;-73
2023/10/07 07:45:39;;;;;;;;;;;;;;;11.88;94.69;97328.44;5064409;28;19934;-73
2023/10/07 07:48:06;;;;;;;;;;;;;;;11.86;96.04;97333.06;5063929;28;19972;-73
2023/10/07 07:50:35;;;;;;;;;;;;;;;11.77;95.94;97327.22;5064676;28;19946;-73
2023/10/07 07:53:06;;;;;;;;;;;;;;;11.83;97.95;97341.38;5063825;28;19937;-73
2023/10/07 07:55:37;;;;;;;;;;;;;;;12.11;98.84;97350.88;5064612;28;19935;-73
2023/10/07 07:58:04;;;;;;;;;;;;;;;12.41;96.84;97345.97;5063807;28;19942;-73
2023/10/07 08:00:31;;;;;;;;;;;;;;;12.64;94.55;97327.06;5063788;28;20115;-73
2023/10/07 08:03:00;;;;;;;;;;;;;;;12.90;93.77;97317.41;5067944;28;19931;-73
2023/10/07 08:05:29;;;;;;;;;;;;;;;13.12;93.61;97313.44;5067833;28;19932;-73
2023/10/07 08:07:58;;;;;;;;;;;;;;;13.35;93.99;97318.13;5067865;28;19936;-73
2023/10/07 08:10:24;;;;;;;;;;;;;;;13.46;90.91;97290.31;5067800;28;20233;-73
2023/10/07 08:12:50;;;;;;;;;;;;;;;13.38;90.56;97304.56;5067755;28;19943;-73
2023/10/07 08:17:45;;;;;;;;;;;;;;;13.16;91.77;97319.06;5067695;28;20101;-73
2023/10/07 08:20:11;;;;;;;;;;;;;;;13.04;91.73;97320.75;5068173;28;19931;-73
2023/10/07 08:22:38;;;;;;;;;;;;;;;12.97;94.32;97344.50;5067553;28;20266;-73
2023/10/07 08:25:07;;;;;;;;;;;;;;;12.95;93.99;97342.06;5067527;28;19926;-73
2023/10/07 08:27:49;;;;;;;;;;;;;;;12.94;93.93;97339.66;5067398;28;20235;-73
2023/10/07 08:30:29;;;;;;;;;;;;;;;12.95;94.47;97341.25;5067734;28;19938;-73
2023/10/07 08:32:55;;;;;;;;;;;;;;;12.93;89.05;97294.06;5067444;28;19945;-73
2023/10/07 08:35:25;;;;;;;;;;;;;;;12.94;93.87;97323.88;5067270;28;20221;-73
2023/10/07 08:37:51;;;;;;;;;;;;;;;12.99;95.79;97337.19;5068118;28;19950;-73
2023/10/07 08:40:28;;;;;;;;;;;;;;;13.03;95.47;97325.22;5067249;28;19931;-73
2023/10/07 08:43:04;;;;;;;;;;;;;;;13.07;96.80;97344.84;5068069;28;19942;-73
2023/10/07 08:45:31;;;;;;;;;;;;;;;13.16;97.58;97330.41;5067433;28;19927;-73
2023/10/07 08:48:08;;;;;;;;;;;;;;;13.20;95.52;97321.06;5066873;28;19961;-73
2023/10/07 08:50:42;;;;;;;;;;;;;;;13.26;96.24;97335.22;5067334;28;20096;-74
2023/10/07 08:53:14;;;;;;;;;;;;;;;13.32;96.19;97328.31;5066707;28;20243;-73
2023/10/07 08:55:43;;;;;;;;;;;;;;;13.40;96.68;97339.41;5067851;28;19941;-73
2023/10/07 08:58:11;;;;;;;;;;;;;;;13.50;94.60;97331.03;5066992;28;19941;-73
2023/10/07 09:00:45;;;;;;;;;;;;;;;13.59;94.48;97332.38;5067426;28;19936;-73
2023/10/07 09:03:15;;;;;;;;;;;;;;;13.65;93.68;97314.06;5066891;28;19946;-73
2023/10/07 09:05:50;;;;;;;;;;;;;;;13.75;97.08;97338.13;5066731;28;19935;-73
2023/10/07 09:08:16;;;;;;;;;;;;;;;13.89;94.61;97320.34;5067577;28;19938;-73
2023/10/07 09:10:45;;;;;;;;;;;;;;;14.10;95.63;97334.97;5066700;28;19964;-73
2023/10/07 09:13:31;;;;;;;;;;;;;;;14.30;94.46;97324.19;5067160;28;20118;-73
2023/10/07 09:16:03;;;;;;;;;;;;;;;14.43;90.30;97296.88;5066845;28;19946;-73
2023/10/07 09:18:31;;;;;;;;;;;;;;;14.54;93.30;97323.31;5066542;28;20137;-74
2023/10/07 09:20:58;;;;;;;;;;;;;;;14.63;87.97;97292.16;5066524;28;19938;-73
2023/10/07 09:23:33;;;;;;;;;;;;;;;14.70;89.76;97295.53;5066447;28;20199;-73
2023/10/07 09:26:14;;;;;;;;;;;;;;;14.76;86.87;97286.72;5066408;28;19933;-73
2023/10/07 09:28:44;;;;;;;;;;;;;;;14.80;88.40;97293.19;5066410;28;19941;-73
2023/10/07 09:31:12;;;;;;;;;;;;;;;14.85;89.36;97302.25;5066894;28;19939;-74
2023/10/07 09:33:38;;;;;;;;;;;;;;;14.91;88.83;97312.72;5066238;28;19937;-73
2023/10/07 09:36:33;;;;;;;;;;;;;;;14.97;88.63;97316.28;5066700;28;19957;-73
2023/10/07 09:39:14;;;;;;;;;;;;;;;15.00;86.04;97292.88;5066239;28;19937;-73
2023/10/07 09:41:44;;;;;;;;;;;;;;;15.07;88.38;97299.91;5066121;28;19938;-73
2023/10/07 09:44:28;;;;;;;;;;;;;;;15.13;90.52;97313.03;5065836;28;20258;-74
2023/10/07 09:46:55;;;;;;;;;;;;;;;15.20;88.10;97297.91;5066175;28;19954;-73
2023/10/07 09:49:23;;;;;;;;;;;;;;;15.29;87.46;97294.94;5066498;28;19946;-73
2023/10/07 09:51:49;;;;;;;;;;;;;;;15.37;87.22;97294.56;5065501;28;20007;-73
2023/10/07 09:54:36;;;;;;;;;;;;;;;15.42;86.69;97295.50;5065869;28;19952;-73
2023/10/07 09:57:20;;;;;;;;;;;;;;;15.53;87.50;97308.97;5066374;28;20098;-73
2023/10/07 10:03:12;;;;;;;;;;;;;;;15.79;87.48;97313.88;5065944;28;19934;-74
2023/10/07 10:05:38;;;;;;;;;;;;;;;15.87;83.96;97298.66;5066120;28;19933;-73
2023/10/07 10:08:11;;;;;;;;;;;;;;;15.94;83.55;97305.47;5066366;28;20287;-73
2023/10/07 10:10:44;;;;;;;;;;;;;;;16.07;80.86;97319.50;5065523;28;19991;-73
2023/10/07 10:13:28;;;;;;;;;;;;;;;16.16;82.43;97334.78;5065778;28;20115;-73
2023/10/07 10:15:57;;;;;;;;;;;;;;;16.27;80.52;97332.34;5065554;28;19942;-73
2023/10/07 10:18:36;;;;;;;;;;;;;;;16.42;82.53;97340.59;5065428;28;19935;-72
2023/10/07 10:21:05;;;;;;;;;;;;;;;16.62;79.60;97340.22;5065451;28;20233;-73
2023/10/07 10:23:33;;;;;;;;;;;;;;;16.80;78.53;97348.03;5064753;28;19959;-74
2023/10/07 10:26:13;;;;;;;;;;;;;;;16.93;77.36;97352.25;5065694;28;19932;-74
2023/10/07 10:28:55;;;;;;;;;;;;;;;17.02;76.10;97342.09;5066044;28;19931;-73
2023/10/07 10:31:21;;;;;;;;;;;;;;;17.17;79.39;97362.75;5065776;28;19939;-74
2023/10/07 10:33:52;;;;;;;;;;;;;;;17.30;79.37;97361.66;5065159;28;19935;-72
2023/10/07 10:36:19;;;;;;;;;;;;;;;17.31;73.67;97342.09;5065903;28;19957;-74
2023/10/07 10:38:47;;;;;;;;;;;;;;;17.29;74.57;97339.66;5065336;28;19941;-74
2023/10/07 10:41:13;;;;;;;;;;;;;;;17.29;76.09;97352.13;5064999;28;19936;-74
2023/10/07 10:43:40;;;;;;;;;;;;;;;17.28;75.91;97350.50;5064993;28;19958;-73
2023/10/07 10:46:06;;;;;;;;;;;;;;;17.26;71.82;97342.81;5064860;28;20119;-73
2023/10/07 10:48:34;;;;;;;;;;;;;;;17.21;74.01;97348.00;5064733;28;19963;-74
2023/10/07 10:51:05;;;;;;;;;;;;;;;17.16;73.17;97340.75;5065367;28;19931;-73
2023/10/07 10:53:41;;;;;;;;;;;;;;;17.17;75.24;97354.81;5065002;28;20113;-74
2023/10/07 10:56:07;;;;;;;;;;;;;;;17.17;76.41;97333.59;5064776;28;19932;-73
2023/10/07 10:58:36;;;;;;;;;;;;;;;17.19;73.35;97339.47;5064710;28;20241;-74
2023/10/07 11:01:05;;;;;;;;;;;;;;;17.27;74.04;97341.75;5064613;28;19939;-74
2023/10/07 11:03:31;;;;;;;;;;;;;;;17.35;74.11;97338.72;5064533;28;19932;-74
2023/10/07 11:05:57;;;;;;;;;;;;;;;17.39;67.99;97331.88;5065156;28;20124;-73
2023/10/07 11:08:24;;;;;;;;;;;;;;;17.42;71.15;97343.84;5064960;28;19954;-73
2023/10/07 11:10:55;;;;;;;;;;;;;;;17.45;72.34;97336.22;5064460;28;19944;-73
2023/10/07 11:13:22;;;;;;;;;;;;;;;17.52;73.42;97338.72;5064390;28;20251;-74
2023/10/07 11:15:57;;;;;;;;;;;;;;;17.63;73.53;97331.72;5064367;28;20123;-73
2023/10/07 11:18:24;;;;;;;;;;;;;;;17.78;73.97;97345.22;5064339;28;19941;-74
2023/10/07 11:20:50;;;;;;;;;;;;;;;17.90;72.65;97333.78;5064271;28;19937;-73
2023/10/07 11:23:16;;;;;;;;;;;;;;;17.99;72.49;97327.00;5064828;28;19974;-73
2023/10/07 11:25:42;;;;;;;;;;;;;;;18.13;74.32;97322.94;5064239;28;19945;-73
2023/10/07 11:28:09;;;;;;;;;;;;;;;18.20;70.87;97315.59;5064089;28;20028;-73
2023/10/07 11:30:44;;;;;;;;;;;;;;;18.26;68.57;97313.81;5064166;28;19935;-74
2023/10/07 11:33:11;;;;;;;;;;;;;;;18.31;71.73;97321.88;5064140;28;19953;-73
2023/10/07 11:35:41;;;;;;;;;;;;;;;18.33;69.32;97314.47;5063072;28;19947;-73
2023/10/07 11:38:09;;;;;;;;;;;;;;;18.36;71.30;97315.81;5064907;28;19950;-73
2023/10/07 11:40:35;;;;;;;;;;;;;;;18.34;71.28;97316.06;5064016;28;19945;-73
2023/10/07 11:43:11;;;;;;;;;;;;;;;18.33;72.45;97311.81;5063977;28;20131;-73
2023/10/07 11:45:37;;;;;;;;;;;;;;;18.31;71.63;97305.94;5064802;28;19937;-74
2023/10/07 11:48:04;;;;;;;;;;;;;;;18.28;71.54;97305.63;5063737;28;20271;-73
2023/10/07 11:50:35;;;;;;;;;;;;;;;18.24;70.24;97302.66;5063918;28;19937;-74
2023/10/07 11:53:01;;;;;;;;;;;;;;;18.17;70.27;97304.69;5064237;28;19940;-73
2023/10/07 11:55:27;;;;;;;;;;;;;;;18.16;69.85;97303.88;5063820;28;19939;-74
2023/10/07 11:57:53;;;;;;;;;;;;;;;18.18;70.42;97301.75;5064479;28;20006;-73
2023/10/07 12:00:37;;;;;;;;;;;;;;;18.22;68.21;97291.47;5063789;28;20256;-74
2023/10/07 12:03:10;;;;;;;;;;;;;;;18.31;71.30;97310.44;5064382;28;19936;-74
2023/10/07 12:05:39;;;;;;;;;;;;;;;18.37;70.22;97299.66;5063780;28;19944;-73
2023/10/07 12:08:05;;;;;;;;;;;;;;;18.46;71.17;97303.47;5063988;28;19952;-73
2023/10/07 12:10:33;;;;;;;;;;;;;;;18.55;69.24;97303.81;5063738;28;19990;-74
2023/10/07 12:13:00;;;;;;;;;;;;;;;18.59;71.26;97312.91;5063735;28;19927;-73
2023/10/07 12:15:26;;;;;;;;;;;;;;;18.62;71.01;97311.59;5063669;28;19932;-74
2023/10/07 12:17:52;;;;;;;;;;;;;;;18.62;69.31;97301.78;5063679;28;19930;-73
2023/10/07 12:20:22;;;;;;;;;;;;;;;18.61;70.04;97310.03;5063651;28;20133;-75
2023/10/07 12:22:48;;;;;;;;;;;;;;;18.62;69.77;97304.44;5063635;28;19950;-73
2023/10/07 12:25:18;;;;;;;;;;;;;;;18.69;73.47;97322.03;5064215;28;19939;-73
2023/10/07 12:27:45;;;;;;;;;;;;;;;18.77;71.22;97301.16;5063585;28;19953;-73
2023/10/07 12:30:11;;;;;;;;;;;;;;;18.86;70.38;97296.25;5063598;28;19937;-73
2023/10/07 12:32:39;;;;;;;;;;;;;;;18.99;72.06;97305.66;5063602;28;19935;-74
2023/10/07 12:35:05;;;;;;;;;;;;;;;19.14;72.78;97299.69;5063483;28;19973;-73
2023/10/07 12:37:31;;;;;;;;;;;;;;;19.27;67.89;97289.44;5063513;28;20125;-74
2023/10/07 12:39:57;;;;;;;;;;;;;;;19.46;67.14;97286.41;5063491;28;19938;-73
2023/10/07 12:42:25;;;;;;;;;;;;;;;19.58;68.94;97308.31;5063444;28;19939;-74
2023/10/07 12:44:51;;;;;;;;;;;;;;;19.60;66.23;97298.22;5062346;28;20271;-74
2023/10/07 12:47:17;;;;;;;;;;;;;;;19.63;70.99;97308.38;5064435;28;19965;-73
2023/10/07 12:49:45;;;;;;;;;;;;;;;19.66;67.48;97299.06;5067472;28;19940;-73
2023/10/07 12:52:14;;;;;;;;;;;;;;;19.68;68.29;97300.41;5067360;28;19938;-73
2023/10/07 12:54:44;;;;;;;;;;;;;;;19.68;67.55;97297.75;5067096;28;19938;-74
2023/10/07 12:57:15;;;;;;;;;;;;;;;19.71;71.62;97312.44;5067004;28;19939;-73
2023/10/07 12:59:47;;;;;;;;;;;;;;;19.73;69.66;97314.84;5067776;28;19939;-73
2023/10/07 13:02:17;;;;;;;;;;;;;;;19.72;68.79;97315.88;5067765;28;19936;-73
2023/10/07 13:04:44;;;;;;;;;;;;;;;19.69;60.78;97298.53;5066841;28;19944;-73
2023/10/07 13:07:10;;;;;;;;;;;;;;;19.67;63.11;97308.66;5066783;28;19962;-73
2023/10/07 13:09:40;;;;;;;;;;;;;;;19.67;61.38;97309.47;5066709;28;19940;-74
2023/10/07 13:12:12;;;;;;;;;;;;;;;19.76;63.85;97315.16;5067277;28;19942;-74
2023/10/07 13:14:40;;;;;;;;;;;;;;;19.93;59.17;97306.19;5067319;28;19927;-73
2023/10/07 13:17:07;;;;;;;;;;;;;;;20.04;60.62;97319.31;5067477;28;20209;-73
2023/10/07 13:19:36;;;;;;;;;;;;;;;20.06;59.03;97319.06;5067119;28;19930;-74
2023/10/07 13:22:05;;;;;;;;;;;;;;;19.99;59.20;97319.28;5066200;28;19947;-73
2023/10/07 13:24:31;;;;;;;;;;;;;;;19.95;58.11;97320.03;5066517;28;19936;-73
2023/10/07 13:26:57;;;;;;;;;;;;;;;20.00;60.82;97328.06;5066431;28;19958;-73
2023/10/07 13:29:23;;;;;;;;;;;;;;;20.05;60.63;97320.94;5066415;28;19937;-74
2023/10/07 13:31:52;;;;;;;;;;;;;;;20.09;57.33;97315.88;5066378;28;19928;-73
2023/10/07 13:34:19;;;;;;;;;;;;;;;20.22;58.86;97315.44;5066256;28;19954;-73
2023/10/07 13:36:45;;;;;;;;;;;;;;;20.32;59.20;97312.00;5066290;28;19934;-73